Time;durP1;ratioP1;P1;durP2;ratioP2;P2;SDS_P1;SDS_P2;PMS_P1;PMS_P2;Temp;Humidity;BMP_temperature;BMP_pressure;BME280_temperature;BME280_humidity;BME280_pressure;Samples;Min_cycle;Max_cycle;Signal;HPM_P1;HPM_P2
2020/12/07 00:01:55;;;;;;;59.13;27.67;;;;;;;;;;10480527;27;20214;-69
2020/12/07 00:06:57;;;;;;;60.27;26.40;;;;;;;;;;10479483;27;20211;-70
2020/12/07 00:12:02;;;;;;;59.03;26.80;;;;;;;;;;10484677;27;20363;-70
2020/12/07 00:17:05;;;;;;;60.83;27.03;;;;;;;;;;10490792;27;20238;-69
2020/12/07 00:22:07;;;;;;;54.50;25.77;;;;;;;;;;10482718;27;20590;-70
2020/12/07 00:27:09;;;;;;;54.80;26.20;;;;;;;;;;10491600;27;20681;-70
2020/12/07 00:32:11;;;;;;;58.33;25.00;;;;;;;;;;10483266;27;20210;-70
2020/12/07 00:37:14;;;;;;;53.83;25.57;;;;;;;;;;10480743;27;20239;-70
2020/12/07 00:42:15;;;;;;;56.07;25.90;;;;;;;;;;10481071;27;20681;-70
2020/12/07 00:47:18;;;;;;;59.27;25.73;;;;;;;;;;10488266;27;20226;-70
2020/12/07 00:52:20;;;;;;;57.87;25.73;;;;;;;;;;10480887;27;20211;-70
2020/12/07 00:57:21;;;;;;;58.37;23.90;;;;;;;;;;10484656;27;20254;-70
2020/12/07 01:02:24;;;;;;;48.97;23.23;;;;;;;;;;10882721;23;20237;-61
2020/12/07 01:07:26;;;;;;;47.07;22.67;;;;;;;;;;10366588;28;20235;-62
2020/12/07 01:12:28;;;;;;;48.17;21.83;;;;;;;;;;10374224;28;20204;-61
2020/12/07 01:17:31;;;;;;;50.70;21.40;;;;;;;;;;10376597;28;20240;-62
2020/12/07 01:22:33;;;;;;;51.00;22.90;;;;;;;;;;10374637;28;20775;-62
2020/12/07 01:27:35;;;;;;;47.67;21.10;;;;;;;;;;10378801;28;20220;-61
2020/12/07 01:32:38;;;;;;;52.67;20.87;;;;;;;;;;10371222;28;20220;-61
2020/12/07 01:37:40;;;;;;;47.20;20.93;;;;;;;;;;10374127;28;20209;-62
2020/12/07 01:42:42;;;;;;;51.37;20.10;;;;;;;;;;10373617;27;20217;-61
2020/12/07 01:47:44;;;;;;;42.53;20.43;;;;;;;;;;10376042;28;20213;-62
2020/12/07 01:52:46;;;;;;;41.47;18.80;;;;;;;;;;10374183;28;20221;-61
2020/12/07 01:57:48;;;;;;;49.67;19.40;;;;;;;;;;10372846;27;20220;-62
2020/12/07 02:02:51;;;;;;;50.73;20.23;;;;;;;;;;10376839;28;20244;-61
2020/12/07 02:08:08;;;;;;;57.93;23.17;;;;;;;;;;10371483;28;20307;-61
2020/12/07 02:13:10;;;;;;;59.33;22.13;;;;;;;;;;10375719;28;21121;-62
2020/12/07 02:18:13;;;;;;;53.97;22.17;;;;;;;;;;10371511;28;20213;-62
2020/12/07 02:23:16;;;;;;;51.33;22.00;;;;;;;;;;10383747;27;20584;-62
2020/12/07 02:28:17;;;;;;;57.47;23.00;;;;;;;;;;10370909;28;20213;-62
2020/12/07 02:33:19;;;;;;;63.23;23.37;;;;;;;;;;10368264;28;20232;-62
2020/12/07 02:38:22;;;;;;;54.27;21.17;;;;;;;;;;10372881;28;20223;-62
2020/12/07 02:43:24;;;;;;;52.03;21.63;;;;;;;;;;10374111;28;20693;-62
2020/12/07 02:48:25;;;;;;;55.70;22.27;;;;;;;;;;10370897;28;20674;-62
2020/12/07 02:53:28;;;;;;;51.53;20.80;;;;;;;;;;10370951;28;20233;-61
2020/12/07 02:58:30;;;;;;;44.37;20.53;;;;;;;;;;10369259;28;20303;-62
2020/12/07 03:03:32;;;;;;;52.10;21.03;;;;;;;;;;10372283;28;20243;-61
2020/12/07 03:08:35;;;;;;;56.83;21.90;;;;;;;;;;10378552;28;20204;-61
2020/12/07 03:13:36;;;;;;;47.40;20.90;;;;;;;;;;10375212;28;20237;-62
2020/12/07 03:18:38;;;;;;;46.77;21.13;;;;;;;;;;10372312;27;20709;-61
2020/12/07 03:23:41;;;;;;;46.03;20.53;;;;;;;;;;10379995;28;20212;-63
2020/12/07 03:28:43;;;;;;;46.70;20.33;;;;;;;;;;10377814;28;20255;-62
2020/12/07 03:33:45;;;;;;;46.07;20.30;;;;;;;;;;10378480;28;20237;-62
2020/12/07 03:38:47;;;;;;;59.43;21.80;;;;;;;;;;10373963;28;20636;-62
2020/12/07 03:43:49;;;;;;;44.63;18.83;;;;;;;;;;10381424;28;20217;-62
2020/12/07 03:48:51;;;;;;;46.57;19.63;;;;;;;;;;10373724;28;20670;-63
2020/12/07 03:53:54;;;;;;;42.43;18.23;;;;;;;;;;10376279;28;20710;-62
2020/12/07 03:58:56;;;;;;;43.83;17.93;;;;;;;;;;10377933;28;20217;-62
2020/12/07 04:04:01;;;;;;;39.73;18.07;;;;;;;;;;10372056;28;20236;-62
2020/12/07 04:09:04;;;;;;;41.17;18.50;;;;;;;;;;10380070;28;20874;-62
2020/12/07 04:14:05;;;;;;;39.03;16.87;;;;;;;;;;10375572;28;20240;-62
2020/12/07 04:19:07;;;;;;;43.23;17.87;;;;;;;;;;10372414;28;20220;-62
2020/12/07 04:24:10;;;;;;;42.37;17.67;;;;;;;;;;10380583;28;20216;-62
2020/12/07 04:29:11;;;;;;;41.93;17.57;;;;;;;;;;10379569;28;20216;-62
2020/12/07 04:34:13;;;;;;;44.00;18.37;;;;;;;;;;10376304;28;20875;-62
2020/12/07 04:39:16;;;;;;;36.93;16.63;;;;;;;;;;10378330;27;20228;-62
2020/12/07 04:44:18;;;;;;;34.43;15.33;;;;;;;;;;10381873;27;20585;-62
2020/12/07 04:49:20;;;;;;;36.23;16.53;;;;;;;;;;10380980;28;20208;-62
2020/12/07 04:54:25;;;;;;;31.63;15.07;;;;;;;;;;10376312;27;20244;-62
2020/12/07 04:59:27;;;;;;;33.43;13.47;;;;;;;;;;10377376;28;20220;-62
2020/12/07 05:04:29;;;;;;;29.17;13.27;;;;;;;;;;10374136;28;20728;-61
2020/12/07 05:09:33;;;;;;;30.30;13.57;;;;;;;;;;10373846;28;20815;-61
2020/12/07 05:14:35;;;;;;;37.90;14.23;;;;;;;;;;10365300;28;20324;-63
2020/12/07 05:19:37;;;;;;;28.80;12.23;;;;;;;;;;10375020;27;20216;-61
2020/12/07 05:24:39;;;;;;;27.53;12.43;;;;;;;;;;10373900;28;20288;-61
2020/12/07 05:29:50;;;;;;;22.93;11.47;;;;;;;;;;10376141;28;20224;-62
2020/12/07 05:34:52;;;;;;;23.17;11.27;;;;;;;;;;10365016;28;20248;-61
2020/12/07 05:39:55;;;;;;;22.47;11.30;;;;;;;;;;10383067;27;20219;-62
2020/12/07 05:44:57;;;;;;;23.63;11.33;;;;;;;;;;10374407;28;20750;-61
2020/12/07 05:50:00;;;;;;;28.23;11.87;;;;;;;;;;10375105;28;20227;-61
2020/12/07 05:55:03;;;;;;;29.90;12.30;;;;;;;;;;10380747;27;20239;-62
2020/12/07 06:00:05;;;;;;;23.00;11.27;;;;;;;;;;10377815;27;20790;-61
2020/12/07 06:05:08;;;;;;;26.63;11.53;;;;;;;;;;10372939;27;20241;-61
2020/12/07 06:10:11;;;;;;;22.57;10.50;;;;;;;;;;10376604;27;20213;-61
2020/12/07 06:15:13;;;;;;;23.67;10.37;;;;;;;;;;10369787;28;20238;-61
2020/12/07 06:20:31;;;;;;;26.17;11.20;;;;;;;;;;10373188;28;20235;-62
2020/12/07 06:25:34;;;;;;;18.20;8.90;;;;;;;;;;10374816;27;20228;-62
2020/12/07 06:30:36;;;;;;;23.27;9.50;;;;;;;;;;10380719;28;20229;-62
2020/12/07 06:35:42;;;;;;;19.33;8.60;;;;;;;;;;10370904;28;20231;-62
2020/12/07 06:40:51;;;;;;;18.77;8.00;;;;;;;;;;10380071;28;20236;-62
2020/12/07 06:45:53;;;;;;;14.63;7.30;;;;;;;;;;10372600;28;20674;-63
2020/12/07 06:50:57;;;;;;;18.53;7.07;;;;;;;;;;10370228;28;20239;-63
2020/12/07 06:55:59;;;;;;;16.43;6.23;;;;;;;;;;10368716;28;20244;-62
2020/12/07 07:01:08;;;;;;;11.97;6.43;;;;;;;;;;10371687;28;20224;-64
2020/12/07 07:06:10;;;;;;;18.93;7.77;;;;;;;;;;10363752;28;20251;-63
2020/12/07 07:11:13;;;;;;;22.70;9.20;;;;;;;;;;10372609;28;20208;-63
2020/12/07 07:16:16;;;;;;;25.93;11.03;;;;;;;;;;10372601;28;20236;-63
2020/12/07 07:21:18;;;;;;;24.47;11.33;;;;;;;;;;10376229;28;20217;-64
2020/12/07 07:26:25;;;;;;;27.70;13.30;;;;;;;;;;10371321;28;20220;-63
2020/12/07 07:31:28;;;;;;;33.27;14.33;;;;;;;;;;10374530;28;20213;-63
2020/12/07 07:36:30;;;;;;;32.73;14.23;;;;;;;;;;10368638;28;20304;-63
2020/12/07 07:41:33;;;;;;;38.37;14.57;;;;;;;;;;10374502;28;20221;-63
2020/12/07 07:46:36;;;;;;;36.80;14.17;;;;;;;;;;10374149;28;20224;-63
2020/12/07 08:19:03;;;;;;;39.40;16.10;;;;;;;;;;10367299;28;20881;-63
2020/12/07 08:24:09;;;;;;;45.07;17.30;;;;;;;;;;10374856;28;20233;-63
2020/12/07 08:29:11;;;;;;;39.37;16.53;;;;;;;;;;10379912;27;20224;-63
2020/12/07 08:34:14;;;;;;;36.07;16.87;;;;;;;;;;10370002;28;20237;-63
2020/12/07 08:39:16;;;;;;;38.97;14.47;;;;;;;;;;10370292;28;20213;-64
2020/12/07 08:44:18;;;;;;;27.43;13.70;;;;;;;;;;10372801;28;20208;-63
2020/12/07 08:49:20;;;;;;;28.50;12.90;;;;;;;;;;10371319;28;20212;-63
2020/12/07 08:54:22;;;;;;;24.20;11.27;;;;;;;;;;10388485;27;20612;-64
2020/12/07 08:59:25;;;;;;;28.73;11.03;;;;;;;;;;10386960;27;20208;-63
2020/12/07 09:04:27;;;;;;;22.03;10.80;;;;;;;;;;10370644;27;20241;-63
2020/12/07 09:09:32;;;;;;;24.73;10.97;;;;;;;;;;10380954;28;20582;-63
2020/12/07 09:14:35;;;;;;;19.80;9.77;;;;;;;;;;10380345;27;20894;-63
2020/12/07 09:19:37;;;;;;;20.37;9.17;;;;;;;;;;10372830;27;20947;-63
2020/12/07 09:24:39;;;;;;;23.87;8.97;;;;;;;;;;10378213;28;20217;-63
2020/12/07 09:29:42;;;;;;;22.47;9.63;;;;;;;;;;10377038;28;20224;-63
2020/12/07 09:34:43;;;;;;;22.87;10.80;;;;;;;;;;10376743;27;20244;-63
2020/12/07 09:39:45;;;;;;;22.70;11.60;;;;;;;;;;10379815;28;20666;-66
2020/12/07 09:44:48;;;;;;;27.30;12.57;;;;;;;;;;10372159;28;20228;-64
2020/12/07 09:49:50;;;;;;;27.00;13.20;;;;;;;;;;10372812;28;20216;-63
2020/12/07 09:54:52;;;;;;;27.90;12.40;;;;;;;;;;10370728;28;20236;-63
2020/12/07 09:59:54;;;;;;;30.53;12.93;;;;;;;;;;10374238;28;20208;-63
2020/12/07 10:04:56;;;;;;;25.73;13.53;;;;;;;;;;10384813;27;20606;-63
2020/12/07 10:09:59;;;;;;;23.13;12.53;;;;;;;;;;10379519;27;20213;-62
2020/12/07 10:15:02;;;;;;;25.07;12.73;;;;;;;;;;10371550;28;20245;-63
2020/12/07 10:20:04;;;;;;;26.63;14.70;;;;;;;;;;10361898;28;20986;-63
2020/12/07 10:25:06;;;;;;;27.13;14.53;;;;;;;;;;10372656;28;20219;-63
2020/12/07 10:30:08;;;;;;;34.73;15.80;;;;;;;;;;10372390;28;20208;-63
2020/12/07 10:35:10;;;;;;;36.73;16.27;;;;;;;;;;10372191;28;20240;-63
2020/12/07 10:40:12;;;;;;;31.10;15.77;;;;;;;;;;10370279;28;20209;-63
2020/12/07 10:45:15;;;;;;;30.67;15.17;;;;;;;;;;10378437;28;20216;-63
2020/12/07 10:50:17;;;;;;;30.07;15.43;;;;;;;;;;10368583;28;20209;-63
2020/12/07 10:55:19;;;;;;;33.20;16.13;;;;;;;;;;10365124;28;20262;-63
2020/12/07 11:00:21;;;;;;;37.70;18.97;;;;;;;;;;10367416;28;20219;-63
2020/12/07 11:05:24;;;;;;;36.60;19.47;;;;;;;;;;10373319;28;20285;-63
2020/12/07 11:10:26;;;;;;;40.90;21.67;;;;;;;;;;10371061;28;20703;-63
2020/12/07 11:15:29;;;;;;;45.47;23.00;;;;;;;;;;10375875;28;20397;-63
2020/12/07 11:20:31;;;;;;;48.73;24.90;;;;;;;;;;10365920;28;20235;-62
2020/12/07 11:25:33;;;;;;;55.33;24.80;;;;;;;;;;10387269;27;20208;-62
2020/12/07 11:30:36;;;;;;;51.63;24.73;;;;;;;;;;10373519;27;20227;-63
2020/12/07 11:35:38;;;;;;;46.87;23.80;;;;;;;;;;10381285;27;20239;-63
2020/12/07 11:40:54;;;;;;;60.03;27.40;;;;;;;;;;10376089;27;20220;-62
2020/12/07 11:45:57;;;;;;;54.00;24.73;;;;;;;;;;10379198;28;20216;-62
2020/12/07 11:50:59;;;;;;;45.83;23.33;;;;;;;;;;10386735;27;20220;-63
2020/12/07 11:56:02;;;;;;;51.37;24.37;;;;;;;;;;10376340;28;20244;-63
2020/12/07 12:01:05;;;;;;;51.47;24.20;;;;;;;;;;10381738;27;20223;-63
2020/12/07 12:06:07;;;;;;;51.30;24.83;;;;;;;;;;10377531;27;20245;-62
2020/12/07 12:11:09;;;;;;;59.43;26.80;;;;;;;;;;10379677;27;20213;-64
2020/12/07 12:16:13;;;;;;;60.77;28.00;;;;;;;;;;10364107;28;20244;-62
2020/12/07 12:21:26;;;;;;;63.87;30.10;;;;;;;;;;10377451;28;20326;-62
2020/12/07 12:26:28;;;;;;;66.13;30.17;;;;;;;;;;10382919;27;20208;-63
2020/12/07 12:31:31;;;;;;;64.83;30.10;;;;;;;;;;10377161;28;20219;-62
2020/12/07 12:36:33;;;;;;;62.47;28.63;;;;;;;;;;10377616;28;20232;-63
2020/12/07 12:41:35;;;;;;;60.40;27.63;;;;;;;;;;10379130;27;20212;-63
2020/12/07 12:46:37;;;;;;;59.40;27.90;;;;;;;;;;10378812;28;20212;-62
2020/12/07 12:51:44;;;;;;;56.93;27.63;;;;;;;;;;10390443;27;20208;-63
2020/12/07 12:56:47;;;;;;;60.57;29.07;;;;;;;;;;10370568;27;20240;-63
2020/12/07 13:01:49;;;;;;;59.17;27.53;;;;;;;;;;10390850;27;20220;-63
2020/12/07 13:06:51;;;;;;;61.43;28.10;;;;;;;;;;10367875;28;20316;-63
2020/12/07 13:11:53;;;;;;;62.63;28.73;;;;;;;;;;10378519;28;20213;-63
2020/12/07 13:17:02;;;;;;;63.23;30.13;;;;;;;;;;10370480;28;20259;-64
2020/12/07 13:22:10;;;;;;;73.60;30.90;;;;;;;;;;10376515;28;20607;-62
2020/12/07 13:27:21;;;;;;;67.43;30.67;;;;;;;;;;10391387;27;20698;-62
2020/12/07 13:32:24;;;;;;;65.73;29.07;;;;;;;;;;10370956;28;20209;-63
2020/12/07 13:37:27;;;;;;;77.20;29.43;;;;;;;;;;10370950;28;20246;-63
2020/12/07 13:42:29;;;;;;;72.30;32.30;;;;;;;;;;10378364;28;20212;-63
2020/12/07 13:47:31;;;;;;;76.77;32.63;;;;;;;;;;10380786;27;20265;-63
2020/12/07 13:52:33;;;;;;;74.60;32.13;;;;;;;;;;10376689;28;20216;-63
2020/12/07 13:57:35;;;;;;;76.80;31.90;;;;;;;;;;10372907;27;20236;-63
2020/12/07 14:02:38;;;;;;;74.07;31.40;;;;;;;;;;10386886;27;20240;-62
2020/12/07 14:07:40;;;;;;;83.50;36.27;;;;;;;;;;10375142;28;20603;-63
2020/12/07 14:12:41;;;;;;;87.67;36.10;;;;;;;;;;10375783;28;20675;-63
2020/12/07 14:17:54;;;;;;;89.23;36.27;;;;;;;;;;10370799;28;20244;-64
2020/12/07 14:23:07;;;;;;;89.97;36.20;;;;;;;;;;10369663;27;20683;-64
2020/12/07 14:39:31;;;;;;;104.60;39.87;;;;;;;;;;10377526;28;20239;-63
2020/12/07 14:44:38;;;;;;;111.50;40.43;;;;;;;;;;10372433;28;20218;-64
2020/12/07 14:49:41;;;;;;;96.70;38.20;;;;;;;;;;10366671;28;20799;-62
2020/12/07 14:54:46;;;;;;;111.07;40.83;;;;;;;;;;10380348;27;20231;-64
2020/12/07 15:05:28;;;;;;;107.43;38.97;;;;;;;;;;10377537;28;20753;-64
2020/12/07 15:16:02;;;;;;;107.07;40.20;;;;;;;;;;10377851;27;20239;-64
2020/12/07 15:21:05;;;;;;;100.70;38.07;;;;;;;;;;10379087;27;20221;-63
2020/12/07 15:26:07;;;;;;;116.30;41.13;;;;;;;;;;10397622;27;20216;-63
2020/12/07 15:31:10;;;;;;;98.40;38.53;;;;;;;;;;10408839;27;20227;-64
2020/12/07 15:36:12;;;;;;;100.70;37.87;;;;;;;;;;10377847;28;20239;-65
2020/12/07 15:41:15;;;;;;;99.43;38.27;;;;;;;;;;10388568;27;20219;-64
2020/12/07 15:46:19;;;;;;;94.57;36.90;;;;;;;;;;10382658;27;20220;-64
2020/12/07 15:51:22;;;;;;;107.10;39.20;;;;;;;;;;10393665;27;20216;-64
2020/12/07 15:56:25;;;;;;;102.77;38.60;;;;;;;;;;10377593;28;20241;-63
2020/12/07 16:01:27;;;;;;;92.27;35.87;;;;;;;;;;10374064;27;20212;-63
2020/12/07 16:06:30;;;;;;;95.57;35.07;;;;;;;;;;10378440;27;20251;-63
2020/12/07 16:11:32;;;;;;;82.23;32.73;;;;;;;;;;10379472;28;20223;-63
2020/12/07 16:16:34;;;;;;;85.73;32.77;;;;;;;;;;10371596;28;20232;-63
2020/12/07 16:21:36;;;;;;;77.37;30.33;;;;;;;;;;10377242;28;20239;-62
2020/12/07 16:26:39;;;;;;;76.47;31.27;;;;;;;;;;10387692;27;20775;-62
2020/12/07 16:31:41;;;;;;;82.47;31.77;;;;;;;;;;10390048;27;20730;-61
2020/12/07 16:36:47;;;;;;;89.33;33.50;;;;;;;;;;10377007;27;20232;-62
2020/12/07 16:41:50;;;;;;;81.77;31.83;;;;;;;;;;10381391;27;20216;-62
2020/12/07 16:46:56;;;;;;;79.07;31.47;;;;;;;;;;10369055;27;20216;-61
2020/12/07 16:51:58;;;;;;;87.13;33.63;;;;;;;;;;10381757;27;20263;-61
2020/12/07 16:57:00;;;;;;;87.60;33.67;;;;;;;;;;10382007;27;20236;-61
2020/12/07 17:02:02;;;;;;;100.37;37.37;;;;;;;;;;10377904;27;20232;-61
2020/12/07 17:07:05;;;;;;;118.10;40.17;;;;;;;;;;10376603;27;20213;-63
2020/12/07 17:12:07;;;;;;;114.63;39.23;;;;;;;;;;10377719;27;20224;-60
2020/12/07 17:17:09;;;;;;;115.70;40.10;;;;;;;;;;10376418;27;20236;-62
2020/12/07 17:22:12;;;;;;;123.40;40.07;;;;;;;;;;10380093;27;20208;-62
2020/12/07 17:27:13;;;;;;;113.80;39.03;;;;;;;;;;10378727;27;20701;-62
2020/12/07 17:32:16;;;;;;;117.70;40.33;;;;;;;;;;10371369;27;20220;-62
2020/12/07 17:37:19;;;;;;;110.37;36.67;;;;;;;;;;10364975;28;20255;-62
2020/12/07 17:42:21;;;;;;;100.10;36.67;;;;;;;;;;10381934;27;20573;-62
2020/12/07 17:47:23;;;;;;;121.73;41.20;;;;;;;;;;10375213;27;20212;-62
2020/12/07 17:52:26;;;;;;;112.93;38.50;;;;;;;;;;10378485;27;20212;-61
2020/12/07 17:57:27;;;;;;;114.57;39.40;;;;;;;;;;10375437;27;20615;-62
2020/12/07 18:02:29;;;;;;;116.40;40.33;;;;;;;;;;10379176;27;20658;-63
2020/12/07 18:07:32;;;;;;;122.23;42.70;;;;;;;;;;10372790;27;20219;-61
2020/12/07 18:12:34;;;;;;;119.57;43.33;;;;;;;;;;10374291;27;20223;-62
2020/12/07 18:17:36;;;;;;;107.50;41.13;;;;;;;;;;10375865;27;20720;-62
2020/12/07 18:22:38;;;;;;;116.37;42.57;;;;;;;;;;10374113;27;20243;-67
2020/12/07 18:27:41;;;;;;;110.77;41.60;;;;;;;;;;10375567;27;20220;-66
2020/12/07 18:32:43;;;;;;;104.17;40.53;;;;;;;;;;10365425;28;21074;-67
2020/12/07 18:37:46;;;;;;;101.63;39.33;;;;;;;;;;10363176;28;20244;-66
2020/12/07 18:42:48;;;;;;;96.13;36.27;;;;;;;;;;10373710;28;20236;-67
2020/12/07 18:47:50;;;;;;;93.00;37.17;;;;;;;;;;10373828;27;20821;-66
2020/12/07 18:52:53;;;;;;;86.60;36.73;;;;;;;;;;10377347;28;20220;-72
2020/12/07 18:57:54;;;;;;;97.33;37.97;;;;;;;;;;10370579;28;20993;-72
2020/12/07 19:02:57;;;;;;;95.27;37.60;;;;;;;;;;10370167;28;20811;-72
2020/12/07 19:07:59;;;;;;;94.37;36.37;;;;;;;;;;10376111;28;20220;-72
2020/12/07 19:13:02;;;;;;;93.47;35.53;;;;;;;;;;10376574;28;20230;-73
2020/12/07 19:18:04;;;;;;;95.53;36.70;;;;;;;;;;10368980;28;20247;-74
2020/12/07 19:23:07;;;;;;;94.37;36.07;;;;;;;;;;10369821;28;20216;-71
2020/12/07 19:28:09;;;;;;;102.07;38.57;;;;;;;;;;10372124;28;20946;-73
2020/12/07 19:33:11;;;;;;;88.93;35.90;;;;;;;;;;10371356;28;20221;-72
2020/12/07 19:38:13;;;;;;;88.20;35.63;;;;;;;;;;10370230;28;20241;-72
2020/12/07 19:43:15;;;;;;;87.90;35.17;;;;;;;;;;10372879;27;20221;-72
2020/12/07 19:48:17;;;;;;;93.57;35.93;;;;;;;;;;10376282;27;20216;-72
2020/12/07 19:53:19;;;;;;;88.13;34.97;;;;;;;;;;10375629;27;20211;-71
2020/12/07 19:58:21;;;;;;;85.10;35.47;;;;;;;;;;10379263;27;20244;-65
2020/12/07 20:03:23;;;;;;;86.17;35.37;;;;;;;;;;10378606;27;20244;-67
2020/12/07 20:08:25;;;;;;;89.60;34.33;;;;;;;;;;10383459;27;20396;-66
2020/12/07 20:13:31;;;;;;;82.70;34.93;;;;;;;;;;10372975;27;20223;-66
2020/12/07 20:18:38;;;;;;;84.57;34.10;;;;;;;;;;10372028;28;20360;-65
2020/12/07 20:23:41;;;;;;;85.17;34.50;;;;;;;;;;10370815;28;20680;-66
2020/12/07 20:28:43;;;;;;;91.27;38.03;;;;;;;;;;10377511;27;20219;-66
2020/12/07 20:33:45;;;;;;;77.13;32.43;;;;;;;;;;10373158;28;21110;-66
2020/12/07 20:39:03;;;;;;;74.47;32.03;;;;;;;;;;10371601;28;20361;-66
2020/12/07 20:44:05;;;;;;;78.47;32.57;;;;;;;;;;10365182;28;20980;-67
2020/12/07 20:49:07;;;;;;;86.90;33.97;;;;;;;;;;10371067;27;20213;-66
2020/12/07 20:54:10;;;;;;;94.23;35.50;;;;;;;;;;10371291;28;20365;-65
2020/12/07 20:59:12;;;;;;;93.90;36.30;;;;;;;;;;10375931;28;20243;-68
2020/12/07 21:04:14;;;;;;;93.40;36.03;;;;;;;;;;10370772;28;20561;-65
2020/12/07 21:09:16;;;;;;;95.00;36.23;;;;;;;;;;10376783;27;20228;-65
2020/12/07 21:14:18;;;;;;;86.43;35.33;;;;;;;;;;10362504;28;20544;-66
2020/12/07 21:19:20;;;;;;;93.30;36.77;;;;;;;;;;10370240;28;20248;-67
2020/12/07 21:24:23;;;;;;;97.17;36.43;;;;;;;;;;10368765;27;20216;-66
2020/12/07 21:29:25;;;;;;;84.13;35.23;;;;;;;;;;10375855;28;20209;-67
2020/12/07 21:34:26;;;;;;;80.07;34.10;;;;;;;;;;10363820;28;20549;-65
2020/12/07 21:39:29;;;;;;;86.63;33.87;;;;;;;;;;10370422;28;20305;-66
2020/12/07 21:44:31;;;;;;;76.87;32.50;;;;;;;;;;10354469;28;20217;-67
2020/12/07 21:49:33;;;;;;;68.97;29.30;;;;;;;;;;10374449;28;20244;-67
2020/12/07 21:54:36;;;;;;;71.03;29.97;;;;;;;;;;10373806;28;20222;-67
2020/12/07 21:59:37;;;;;;;66.47;29.93;;;;;;;;;;10365653;28;20240;-66
2020/12/07 22:04:39;;;;;;;71.23;30.33;;;;;;;;;;10360812;28;20266;-65
2020/12/07 22:09:42;;;;;;;62.80;27.63;;;;;;;;;;10370613;28;20208;-67
2020/12/07 22:14:44;;;;;;;68.47;27.90;;;;;;;;;;10364645;28;20216;-66
2020/12/07 22:19:46;;;;;;;62.97;27.87;;;;;;;;;;10368044;27;20653;-66
2020/12/07 22:24:49;;;;;;;64.70;28.37;;;;;;;;;;10363134;28;20221;-66
2020/12/07 22:29:51;;;;;;;64.00;27.30;;;;;;;;;;10367615;28;20624;-66
2020/12/07 22:34:53;;;;;;;65.07;28.60;;;;;;;;;;10365804;28;20216;-66
2020/12/07 22:39:55;;;;;;;65.53;29.03;;;;;;;;;;10366970;28;20236;-65
2020/12/07 22:44:57;;;;;;;63.97;27.77;;;;;;;;;;10368887;28;20306;-66
2020/12/07 22:49:59;;;;;;;59.17;26.73;;;;;;;;;;10372096;27;20216;-66
2020/12/07 22:55:03;;;;;;;59.17;26.33;;;;;;;;;;10367453;28;20220;-66
2020/12/07 23:00:05;;;;;;;58.87;25.67;;;;;;;;;;10370950;28;20247;-66
2020/12/07 23:05:07;;;;;;;57.23;25.87;;;;;;;;;;10373892;28;20254;-66
2020/12/07 23:10:10;;;;;;;54.63;25.77;;;;;;;;;;10371343;28;20733;-66
2020/12/07 23:15:12;;;;;;;59.47;27.23;;;;;;;;;;10381695;28;20217;-66
2020/12/07 23:20:14;;;;;;;61.83;27.57;;;;;;;;;;10380588;28;20641;-67
2020/12/07 23:25:16;;;;;;;60.93;27.37;;;;;;;;;;10376866;28;20228;-65
2020/12/07 23:30:18;;;;;;;68.13;28.27;;;;;;;;;;10392844;27;20211;-66
2020/12/07 23:35:22;;;;;;;60.90;27.13;;;;;;;;;;10376021;28;20216;-65
2020/12/07 23:40:24;;;;;;;57.60;25.90;;;;;;;;;;10380789;28;20714;-66
2020/12/07 23:45:26;;;;;;;62.93;27.90;;;;;;;;;;10389720;27;20217;-65
2020/12/07 23:50:28;;;;;;;56.47;26.00;;;;;;;;;;10379632;28;20228;-66
2020/12/07 23:55:31;;;;;;;61.37;26.77;;;;;;;;;;10375075;28;20209;-66
